createdAt,value
2019-04-07T00:00:54.255Z,94.30
2019-04-07T00:03:21.568Z,94.10
2019-04-07T00:05:49.404Z,94.10
2019-04-07T00:08:17.020Z,94.20
2019-04-07T00:10:44.671Z,94.00
2019-04-07T00:13:12.608Z,94.20
2019-04-07T00:15:39.961Z,94.10
2019-04-07T00:18:07.731Z,94.20
2019-04-07T00:20:36.354Z,94.00
2019-04-07T00:23:03.656Z,94.00
2019-04-07T00:25:30.956Z,94.50
2019-04-07T00:27:58.546Z,94.70
2019-04-07T00:30:25.847Z,94.90
2019-04-07T00:32:53.080Z,95.10
2019-04-07T00:35:26.895Z,95.10
2019-04-07T00:37:49.412Z,95.00
2019-04-07T00:40:16.597Z,95.20
2019-04-07T00:42:44.280Z,95.20
2019-04-07T00:45:11.796Z,95.50
2019-04-07T00:47:38.996Z,95.30
2019-04-07T00:50:06.689Z,95.30
2019-04-07T00:52:33.895Z,95.50
2019-04-07T00:55:01.518Z,95.50
2019-04-07T00:57:28.876Z,95.60
2019-04-07T00:59:56.144Z,95.80
2019-04-07T01:02:23.531Z,96.00
2019-04-07T01:04:50.865Z,96.10
2019-04-07T01:07:19.127Z,96.20
2019-04-07T01:09:46.460Z,95.90
2019-04-07T01:12:15.670Z,95.80
2019-04-07T01:14:43.367Z,96.00
2019-04-07T01:17:11.418Z,96.30
2019-04-07T01:19:39.741Z,96.50
2019-04-07T01:22:08.228Z,96.30
2019-04-07T01:24:36.416Z,96.40
2019-04-07T01:27:04.049Z,96.30
2019-04-07T01:29:32.082Z,96.30
2019-04-07T01:31:59.504Z,96.50
2019-04-07T01:34:27.359Z,96.50
2019-04-07T01:36:54.702Z,96.50
2019-04-07T01:39:22.074Z,96.50
2019-04-07T01:42:11.654Z,96.70
2019-04-07T01:44:58.564Z,96.90
2019-04-07T01:47:36.291Z,96.80
2019-04-07T01:50:16.628Z,96.90
2019-04-07T01:53:10.020Z,97.20
2019-04-07T01:56:06.441Z,97.60
2019-04-07T01:58:43.694Z,97.80
2019-04-07T02:01:42.761Z,97.50
2019-04-07T02:04:28.088Z,97.30
2019-04-07T02:07:05.764Z,97.30
2019-04-07T02:09:48.177Z,97.30
2019-04-07T02:12:35.013Z,97.30
2019-04-07T02:15:10.541Z,97.50
2019-04-07T02:17:48.125Z,97.40
2019-04-07T02:20:57.651Z,97.50
2019-04-07T02:23:44.643Z,97.50
2019-04-07T02:26:21.419Z,97.60
2019-04-07T02:28:56.248Z,97.50
2019-04-07T02:31:34.085Z,97.70
2019-04-07T02:34:19.670Z,97.70
2019-04-07T02:36:58.209Z,97.80
2019-04-07T02:39:34.705Z,97.90
2019-04-07T02:42:20.359Z,98.10
2019-04-07T02:45:19.744Z,98.10
2019-04-07T02:48:15.914Z,98.20
2019-04-07T02:51:01.520Z,98.30
2019-04-07T02:53:51.130Z,98.40
2019-04-07T02:56:36.660Z,98.50
2019-04-07T02:59:22.983Z,98.90
2019-04-07T03:01:59.293Z,98.70
2019-04-07T03:04:35.299Z,98.70
2019-04-07T03:07:17.665Z,98.60
2019-04-07T03:10:02.949Z,98.60
2019-04-07T03:12:59.261Z,98.60
2019-04-07T03:15:32.466Z,98.40
2019-04-07T03:18:16.993Z,98.50
2019-04-07T03:21:03.884Z,98.40
2019-04-07T03:23:54.668Z,98.40
2019-04-07T03:26:40.685Z,98.30
2019-04-07T03:29:31.096Z,98.20
2019-04-07T03:32:19.936Z,97.90
2019-04-07T03:35:07.264Z,97.90
2019-04-07T03:37:46.835Z,97.80
2019-04-07T03:40:19.997Z,97.80
2019-04-07T03:43:05.006Z,98.00
2019-04-07T03:46:00.288Z,98.00
2019-04-07T03:48:35.333Z,98.10
2019-04-07T03:51:09.097Z,98.10
2019-04-07T03:54:08.946Z,98.20
2019-04-07T03:56:52.974Z,98.30
2019-04-07T03:59:40.616Z,98.40
2019-04-07T04:02:30.051Z,98.20
2019-04-07T04:05:08.181Z,98.10
2019-04-07T04:07:40.320Z,98.20
2019-04-07T04:10:26.986Z,98.20
2019-04-07T04:13:12.605Z,98.30
2019-04-07T04:15:58.825Z,98.10
2019-04-07T04:18:26.435Z,98.20
2019-04-07T04:20:54.287Z,98.40
2019-04-07T04:23:22.002Z,98.50
2019-04-07T04:25:49.321Z,98.20
2019-04-07T04:28:16.532Z,98.20
2019-04-07T04:30:44.108Z,98.10
2019-04-07T04:33:12.309Z,98.00
2019-04-07T04:35:40.686Z,98.00
2019-04-07T04:38:08.291Z,97.90
2019-04-07T04:40:36.189Z,97.90
2019-04-07T04:43:04.654Z,97.90
2019-04-07T04:45:32.006Z,97.90
2019-04-07T04:48:00.108Z,97.90
2019-04-07T04:50:27.602Z,97.80
2019-04-07T04:52:54.901Z,97.60
2019-04-07T04:55:22.231Z,97.50
2019-04-07T04:57:49.829Z,97.20
2019-04-07T05:00:17.801Z,97.50
2019-04-07T05:02:46.835Z,97.40
2019-04-07T05:05:14.211Z,97.60
2019-04-07T05:07:55.213Z,97.60
2019-04-07T05:10:10.501Z,97.70
2019-04-07T05:12:37.942Z,97.60
2019-04-07T05:15:06.335Z,97.50
2019-04-07T05:17:33.657Z,97.50
2019-04-07T05:20:01.173Z,97.50
2019-04-07T05:22:29.098Z,97.70
2019-04-07T05:24:57.588Z,97.70
2019-04-07T05:27:25.118Z,97.70
2019-04-07T05:29:52.350Z,97.60
2019-04-07T05:32:20.061Z,97.60
2019-04-07T05:34:47.670Z,97.40
2019-04-07T05:37:14.980Z,97.50
2019-04-07T05:39:42.560Z,97.30
2019-04-07T05:42:09.933Z,97.30
2019-04-07T05:44:37.185Z,97.30
2019-04-07T05:47:04.441Z,97.20
2019-04-07T05:49:32.462Z,97.30
2019-04-07T05:52:04.215Z,97.20
2019-04-07T05:54:29.521Z,97.30
2019-04-07T05:57:00.380Z,97.30
2019-04-07T05:59:26.382Z,97.30
2019-04-07T06:01:58.415Z,97.20
2019-04-07T06:04:22.862Z,97.30
2019-04-07T06:06:52.681Z,97.20
2019-04-07T06:09:20.775Z,97.20
2019-04-07T06:11:48.740Z,97.80
2019-04-07T06:14:16.960Z,97.80
2019-04-07T06:16:45.157Z,97.40
2019-04-07T06:19:12.611Z,97.20
2019-04-07T06:21:39.942Z,97.30
2019-04-07T06:24:07.934Z,97.30
2019-04-07T06:26:37.010Z,97.40
2019-04-07T06:29:04.820Z,97.40
2019-04-07T06:31:33.960Z,97.20
2019-04-07T06:34:01.304Z,97.10
2019-04-07T06:36:28.725Z,97.50
2019-04-07T06:38:56.115Z,97.50
2019-04-07T06:41:25.020Z,97.80
2019-04-07T06:43:52.839Z,98.00
2019-04-07T06:46:30.712Z,98.40
2019-04-07T06:49:04.752Z,98.30
2019-04-07T06:51:47.845Z,98.70
2019-04-07T06:54:34.101Z,98.30
2019-04-07T06:57:19.552Z,98.70
2019-04-07T07:00:08.430Z,99.20
2019-04-07T07:02:45.594Z,99.40
2019-04-07T07:05:35.406Z,99.50
2019-04-07T07:08:12.863Z,99.70
2019-04-07T07:10:50.807Z,99.90
2019-04-07T07:13:46.496Z,99.40
2019-04-07T07:16:23.901Z,99.50
2019-04-07T07:19:10.893Z,98.90
2019-04-07T07:21:56.965Z,98.90
2019-04-07T07:24:25.703Z,98.90
2019-04-07T07:26:57.545Z,99.20
2019-04-07T07:29:24.389Z,99.60
2019-04-07T07:31:55.375Z,99.50
2019-04-07T07:34:22.160Z,99.50
2019-04-07T07:36:52.314Z,99.50
2019-04-07T07:39:18.801Z,99.30
2019-04-07T07:41:46.202Z,99.40
2019-04-07T07:44:13.534Z,99.40
2019-04-07T07:46:40.748Z,99.90
2019-04-07T07:49:07.959Z,99.80
2019-04-07T07:51:37.720Z,99.20
2019-04-07T07:54:04.723Z,99.90
2019-04-07T07:56:32.165Z,99.30
2019-04-07T07:59:00.872Z,99.90
2019-04-07T08:01:28.479Z,99.90
2019-04-07T08:03:55.890Z,99.90
2019-04-07T08:06:23.176Z,99.90
2019-04-07T08:08:50.468Z,99.90
2019-04-07T08:11:17.983Z,99.90
2019-04-07T08:13:46.948Z,99.90
2019-04-07T08:16:15.140Z,99.90
2019-04-07T08:18:44.664Z,99.90
2019-04-07T08:21:12.455Z,99.90
2019-04-07T08:23:43.041Z,99.90
2019-04-07T08:26:10.474Z,99.90
2019-04-07T08:28:38.170Z,99.90
2019-04-07T08:31:05.633Z,99.90
2019-04-07T08:33:33.182Z,99.70
2019-04-07T08:36:00.680Z,99.40
2019-04-07T08:38:28.398Z,99.90
2019-04-07T08:40:56.619Z,99.80
2019-04-07T08:43:24.764Z,99.90
2019-04-07T08:45:52.523Z,99.80
2019-04-07T08:48:20.839Z,99.90
2019-04-07T08:50:49.643Z,99.90
2019-04-07T08:53:18.377Z,99.70
2019-04-07T08:55:48.591Z,99.90
2019-04-07T08:58:25.192Z,99.90
2019-04-07T09:00:50.987Z,99.90
2019-04-07T09:03:17.178Z,99.90
2019-04-07T09:05:44.537Z,99.90
2019-04-07T09:08:11.830Z,99.90
2019-04-07T09:10:49.221Z,99.90
2019-04-07T09:13:15.749Z,99.90
2019-04-07T09:15:52.413Z,99.90
2019-04-07T09:18:26.508Z,99.90
2019-04-07T09:21:13.386Z,99.90
2019-04-07T09:24:10.099Z,99.60
2019-04-07T09:26:44.542Z,99.50
2019-04-07T09:29:34.349Z,99.60
2019-04-07T09:32:31.333Z,99.90
2019-04-07T09:35:24.083Z,99.80
2019-04-07T09:38:10.869Z,99.90
2019-04-07T09:40:57.236Z,99.90
2019-04-07T09:43:46.990Z,99.90
2019-04-07T09:46:24.199Z,99.90
2019-04-07T09:49:15.777Z,99.30
2019-04-07T09:51:49.777Z,99.00
2019-04-07T09:54:46.014Z,99.60
2019-04-07T09:57:19.072Z,99.00
2019-04-07T10:00:08.691Z,98.80
2019-04-07T10:02:45.909Z,98.60
2019-04-07T10:05:31.520Z,97.70
2019-04-07T10:08:21.130Z,97.90
2019-04-07T10:11:11.774Z,97.70
2019-04-07T10:13:53.139Z,97.40
2019-04-07T10:16:33.105Z,97.10
2019-04-07T10:19:28.224Z,96.80
2019-04-07T10:22:04.016Z,97.10
2019-04-07T10:24:57.034Z,96.90
2019-04-07T10:27:56.631Z,96.70
2019-04-07T10:31:02.414Z,97.00
2019-04-07T10:33:52.602Z,96.80
2019-04-07T10:36:30.750Z,96.80
2019-04-07T10:39:30.298Z,96.90
2019-04-07T10:42:13.696Z,97.20
2019-04-07T10:44:49.295Z,96.90
2019-04-07T10:47:52.181Z,97.20
2019-04-07T10:50:57.994Z,97.60
2019-04-07T10:53:43.756Z,95.20
2019-04-07T10:56:30.912Z,95.30
2019-04-07T10:59:33.065Z,95.70
2019-04-07T11:02:26.005Z,95.40
2019-04-07T11:05:18.635Z,95.80
2019-04-07T11:07:58.083Z,95.40
2019-04-07T11:10:39.119Z,95.50
2019-04-07T11:13:27.869Z,95.50
2019-04-07T11:16:18.545Z,95.30
2019-04-07T11:19:05.545Z,95.30
2019-04-07T11:21:55.575Z,94.70
2019-04-07T11:24:32.672Z,94.30
2019-04-07T11:27:11.289Z,94.60
2019-04-07T11:29:54.962Z,94.40
2019-04-07T11:32:38.978Z,93.70
2019-04-07T11:35:28.699Z,93.60
2019-04-07T11:38:23.384Z,93.50
2019-04-07T11:41:13.045Z,93.50
2019-04-07T11:44:02.686Z,93.70
2019-04-07T11:47:02.214Z,92.50
2019-04-07T11:49:55.297Z,91.40
2019-04-07T11:52:45.115Z,92.00
2019-04-07T11:55:31.333Z,92.20
2019-04-07T11:58:24.062Z,92.80
2019-04-07T12:01:12.979Z,92.90
2019-04-07T12:03:57.408Z,92.40
2019-04-07T12:06:38.629Z,92.30
2019-04-07T12:09:26.593Z,91.30
2019-04-07T12:12:10.290Z,91.70
2019-04-07T12:15:04.135Z,91.20
2019-04-07T12:17:50.172Z,91.60
2019-04-07T12:20:46.218Z,91.40
2019-04-07T12:23:25.309Z,91.20
2019-04-07T12:26:18.162Z,91.40
2019-04-07T12:29:01.411Z,91.40
2019-04-07T12:32:03.950Z,90.70
2019-04-07T12:34:54.761Z,90.90
2019-04-07T12:37:32.959Z,90.30
2019-04-07T12:40:26.525Z,90.50
2019-04-07T12:43:26.117Z,90.40
2019-04-07T12:46:10.101Z,91.00
2019-04-07T12:48:59.599Z,91.10
2019-04-07T12:51:47.229Z,91.10
2019-04-07T12:54:22.178Z,90.70
2019-04-07T12:56:57.934Z,90.60
2019-04-07T12:59:48.742Z,90.70
2019-04-07T13:02:51.618Z,90.70
2019-04-07T13:05:39.154Z,90.50
2019-04-07T13:08:32.468Z,89.80
2019-04-07T13:11:10.759Z,87.90
2019-04-07T13:14:05.153Z,89.20
2019-04-07T13:16:48.156Z,89.60
2019-04-07T13:19:35.281Z,89.90
2019-04-07T13:22:29.910Z,90.40
2019-04-07T13:25:18.673Z,90.40
2019-04-07T13:28:04.233Z,90.40
2019-04-07T13:30:38.919Z,89.50
2019-04-07T13:33:38.081Z,89.20
2019-04-07T13:36:25.319Z,89.40
2019-04-07T13:38:58.786Z,89.20
2019-04-07T13:41:52.764Z,89.10
2019-04-07T13:44:38.791Z,89.60
2019-04-07T13:47:20.630Z,88.80
2019-04-07T13:49:57.327Z,88.30
2019-04-07T13:52:50.130Z,87.50
2019-04-07T13:55:40.924Z,88.70
2019-04-07T13:58:21.845Z,89.00
2019-04-07T14:01:17.988Z,88.60
2019-04-07T14:03:57.087Z,87.30
2019-04-07T14:06:36.126Z,86.40
2019-04-07T14:09:16.936Z,86.80
2019-04-07T14:12:03.189Z,86.40
2019-04-07T14:14:30.316Z,87.10
2019-04-07T14:17:29.730Z,85.80
2019-04-07T14:20:16.631Z,85.80
2019-04-07T14:23:16.432Z,85.90
2019-04-07T14:26:02.399Z,85.40
2019-04-07T14:28:52.236Z,83.50
2019-04-07T14:31:34.737Z,84.50
2019-04-07T14:34:27.270Z,83.70
2019-04-07T14:37:12.338Z,83.60
2019-04-07T14:39:47.532Z,83.60
2019-04-07T14:42:33.068Z,86.00
2019-04-07T14:45:20.048Z,86.30
2019-04-07T14:48:12.984Z,85.60
2019-04-07T14:51:03.647Z,85.00
2019-04-07T14:54:06.468Z,85.00
2019-04-07T14:56:53.132Z,86.10
2019-04-07T14:59:40.560Z,84.40
2019-04-07T15:02:07.976Z,85.60
2019-04-07T15:04:45.598Z,86.10
2019-04-07T15:07:45.066Z,85.70
2019-04-07T15:10:22.141Z,86.20
2019-04-07T15:12:53.248Z,87.00
2019-04-07T15:15:21.278Z,86.10
2019-04-07T15:17:48.820Z,85.90
2019-04-07T15:20:16.150Z,86.30
2019-04-07T15:22:45.891Z,86.30
2019-04-07T15:25:12.576Z,86.70
2019-04-07T15:27:40.129Z,86.10
2019-04-07T15:30:10.577Z,86.00
2019-04-07T15:32:37.097Z,86.10
2019-04-07T15:35:05.121Z,86.00
2019-04-07T15:37:33.659Z,85.90
2019-04-07T15:40:03.659Z,86.00
2019-04-07T15:42:38.984Z,86.40
2019-04-07T15:44:59.194Z,85.70
2019-04-07T15:47:26.575Z,86.20
2019-04-07T15:49:54.085Z,85.80
2019-04-07T15:52:21.840Z,86.00
2019-04-07T15:54:49.277Z,86.30
2019-04-07T15:57:20.899Z,85.60
2019-04-07T15:59:46.102Z,85.50
2019-04-07T16:02:13.527Z,85.50
2019-04-07T16:04:40.807Z,84.80
2019-04-07T16:07:08.146Z,85.30
2019-04-07T16:09:47.405Z,86.00
2019-04-07T16:12:06.414Z,86.10
2019-04-07T16:14:33.849Z,86.20
2019-04-07T16:17:04.093Z,86.00
2019-04-07T16:19:40.017Z,86.50
2019-04-07T16:22:00.028Z,86.90
2019-04-07T16:24:27.514Z,86.50
2019-04-07T16:26:54.782Z,87.30
2019-04-07T16:29:22.260Z,87.40
2019-04-07T16:31:49.996Z,87.70
2019-04-07T16:34:17.420Z,87.60
2019-04-07T16:36:44.641Z,87.90
2019-04-07T16:39:11.872Z,88.00
2019-04-07T16:41:39.338Z,87.50
2019-04-07T16:44:09.265Z,87.70
2019-04-07T16:46:36.801Z,88.30
2019-04-07T16:49:04.537Z,87.90
2019-04-07T16:51:33.933Z,87.90
2019-04-07T16:54:01.505Z,88.10
2019-04-07T16:56:29.208Z,87.90
2019-04-07T16:58:56.643Z,87.80
2019-04-07T17:01:25.803Z,88.20
2019-04-07T17:03:54.287Z,88.40
2019-04-07T17:06:21.925Z,88.60
2019-04-07T17:08:51.567Z,88.80
2019-04-07T17:11:19.213Z,88.40
2019-04-07T17:13:47.201Z,88.40
2019-04-07T17:16:14.736Z,88.20
2019-04-07T17:18:43.624Z,88.00
2019-04-07T17:21:15.109Z,88.00
2019-04-07T17:23:42.850Z,88.20
2019-04-07T17:26:10.241Z,87.70
2019-04-07T17:28:37.785Z,88.00
2019-04-07T17:31:05.848Z,88.30
2019-04-07T17:33:36.878Z,88.50
2019-04-07T17:36:02.474Z,88.30
2019-04-07T17:38:38.309Z,88.00
2019-04-07T17:41:08.852Z,87.90
2019-04-07T17:43:56.553Z,87.90
2019-04-07T17:46:56.721Z,87.90
2019-04-07T17:49:46.047Z,87.80
2019-04-07T17:52:26.089Z,88.30
2019-04-07T17:55:04.901Z,88.10
2019-04-07T17:57:54.288Z,88.20
2019-04-07T18:00:42.193Z,88.20
2019-04-07T18:03:19.501Z,88.10
2019-04-07T18:06:18.429Z,88.50
2019-04-07T18:09:07.108Z,89.10
2019-04-07T18:11:33.920Z,89.20
2019-04-07T18:14:30.050Z,89.60
2019-04-07T18:17:20.388Z,89.70
2019-04-07T18:20:08.848Z,89.90
2019-04-07T18:22:47.635Z,90.00
2019-04-07T18:25:53.243Z,89.60
2019-04-07T18:28:37.086Z,89.70
2019-04-07T18:31:11.688Z,89.80
2019-04-07T18:34:01.864Z,89.90
2019-04-07T18:36:56.330Z,89.60
2019-04-07T18:39:33.943Z,89.70
2019-04-07T18:42:30.666Z,89.90
2019-04-07T18:45:32.568Z,90.00
2019-04-07T18:48:28.416Z,90.10
2019-04-07T18:51:16.498Z,90.30
2019-04-07T18:54:03.063Z,90.40
2019-04-07T18:56:48.244Z,90.30
2019-04-07T18:59:38.943Z,90.40
2019-04-07T19:02:27.329Z,90.50
2019-04-07T19:05:15.325Z,90.50
2019-04-07T19:08:03.995Z,90.80
2019-04-07T19:10:41.357Z,91.20
2019-04-07T19:13:31.256Z,91.30
2019-04-07T19:16:19.445Z,91.10
2019-04-07T19:19:04.938Z,91.10
2019-04-07T19:21:54.741Z,91.00
2019-04-07T19:24:42.759Z,91.10
2019-04-07T19:27:30.175Z,91.20
2019-04-07T19:30:14.458Z,91.20
2019-04-07T19:32:56.537Z,91.00
2019-04-07T19:35:50.152Z,91.10
2019-04-07T19:38:32.264Z,91.10
2019-04-07T19:41:13.339Z,90.80
2019-04-07T19:43:56.542Z,91.00
2019-04-07T19:46:49.212Z,90.90
2019-04-07T19:49:34.706Z,91.10
2019-04-07T19:52:27.510Z,91.50
2019-04-07T19:55:14.288Z,91.50
2019-04-07T19:58:04.079Z,91.70
2019-04-07T20:00:41.568Z,91.70
2019-04-07T20:03:31.970Z,92.10
2019-04-07T20:06:13.737Z,92.50
2019-04-07T20:09:00.105Z,92.60
2019-04-07T20:11:41.643Z,92.70
2019-04-07T20:14:45.083Z,92.70
2019-04-07T20:17:17.416Z,92.80
2019-04-07T20:20:04.238Z,93.00
2019-04-07T20:22:56.380Z,93.10
2019-04-07T20:25:49.205Z,93.30
2019-04-07T20:28:23.020Z,93.30
2019-04-07T20:31:10.504Z,93.60
2019-04-07T20:33:47.184Z,93.70
2019-04-07T20:36:33.775Z,93.70
2019-04-07T20:39:11.517Z,93.80
2019-04-07T20:42:15.820Z,93.70
2019-04-07T20:45:05.660Z,93.60
2019-04-07T20:47:49.625Z,93.30
2019-04-07T20:50:28.098Z,93.40
2019-04-07T20:53:15.442Z,93.40
2019-04-07T20:55:56.432Z,93.30
2019-04-07T20:58:48.852Z,93.30
2019-04-07T21:01:29.250Z,93.20
2019-04-07T21:04:08.652Z,93.10
2019-04-07T21:06:51.107Z,93.20
2019-04-07T21:09:53.534Z,93.30
2019-04-07T21:12:31.019Z,93.20
2019-04-07T21:15:27.527Z,93.20
2019-04-07T21:18:12.688Z,93.20
2019-04-07T21:20:58.840Z,93.10
2019-04-07T21:23:38.218Z,92.70
2019-04-07T21:26:19.699Z,92.60
2019-04-07T21:28:54.549Z,92.70
2019-04-07T21:31:29.028Z,92.50
2019-04-07T21:34:05.271Z,92.10
2019-04-07T21:36:48.442Z,92.50
2019-04-07T21:39:32.819Z,92.40
2019-04-07T21:42:20.976Z,92.60
2019-04-07T21:45:08.595Z,92.60
2019-04-07T21:47:48.192Z,92.80
2019-04-07T21:50:41.123Z,93.00
2019-04-07T21:53:29.464Z,93.20
2019-04-07T21:56:17.891Z,93.90
2019-04-07T21:59:04.350Z,93.70
2019-04-07T22:01:53.758Z,94.00
2019-04-07T22:04:38.178Z,94.30
2019-04-07T22:07:11.401Z,94.60
2019-04-07T22:09:47.071Z,94.50
2019-04-07T22:12:12.672Z,94.60
2019-04-07T22:14:41.850Z,94.70
2019-04-07T22:17:09.488Z,94.50
2019-04-07T22:19:36.886Z,94.40
2019-04-07T22:22:04.612Z,94.30
2019-04-07T22:24:33.960Z,94.50
2019-04-07T22:27:01.437Z,94.30
2019-04-07T22:29:32.770Z,94.40
2019-04-07T22:31:59.793Z,94.10
2019-04-07T22:34:29.827Z,93.80
2019-04-07T22:36:56.530Z,93.80
2019-04-07T22:39:27.612Z,93.90
2019-04-07T22:41:52.973Z,93.90
2019-04-07T22:44:21.995Z,94.00
2019-04-07T22:46:52.152Z,94.30
2019-04-07T22:49:19.828Z,94.50
2019-04-07T22:51:49.528Z,94.80
2019-04-07T22:54:16.744Z,94.90
2019-04-07T22:56:46.691Z,94.60
2019-04-07T22:59:13.958Z,94.30
2019-04-07T23:01:41.177Z,94.80
2019-04-07T23:04:08.426Z,94.80
2019-04-07T23:06:36.239Z,94.70
2019-04-07T23:09:05.813Z,95.00
2019-04-07T23:11:33.233Z,94.30
2019-04-07T23:14:01.020Z,94.40
2019-04-07T23:16:28.380Z,94.20
2019-04-07T23:18:55.568Z,93.70
2019-04-07T23:21:23.489Z,93.20
2019-04-07T23:23:51.422Z,93.00
2019-04-07T23:26:18.884Z,93.30
2019-04-07T23:28:47.066Z,93.50
2019-04-07T23:31:15.860Z,93.90
2019-04-07T23:33:43.821Z,94.10
2019-04-07T23:36:11.581Z,94.60
2019-04-07T23:38:39.172Z,94.70
2019-04-07T23:41:06.550Z,95.00
2019-04-07T23:43:33.811Z,95.40
2019-04-07T23:46:02.078Z,96.10
2019-04-07T23:48:30.534Z,96.30
2019-04-07T23:50:58.252Z,96.20
2019-04-07T23:54:02.328Z,95.70
2019-04-07T23:56:29.648Z,95.40
2019-04-07T23:58:57.187Z,95.20
